Time;durP1;ratioP1;P1;durP2;ratioP2;P2;SDS_P1;SDS_P2;PMS_P1;PMS_P2;Temp;Humidity;BMP_temperature;BMP_pressure;BME280_temperature;BME280_humidity;BME280_pressure;Samples;Min_cycle;Max_cycle;Signal;HPM_P1;HPM_P2
2023/11/14 00:01:55;;;;;;;1.55;0.93;;;13.80;99.90;;;;;;5019881;28;20037;-83
2023/11/14 00:04:22;;;;;;;1.90;0.80;;;13.80;99.90;;;;;;5020548;28;20013;-83
2023/11/14 00:06:49;;;;;;;2.17;1.00;;;13.70;99.90;;;;;;5021768;28;20067;-84
2023/11/14 00:09:14;;;;;;;1.27;0.90;;;13.60;99.90;;;;;;5018906;28;20056;-84
2023/11/14 00:11:43;;;;;;;10.75;1.83;;;13.50;99.90;;;;;;5021649;28;20041;-83
2023/11/14 00:14:09;;;;;;;1.75;0.90;;;13.40;99.90;;;;;;5021668;28;20033;-84
2023/11/14 00:16:35;;;;;;;2.38;1.00;;;13.40;99.90;;;;;;5017339;28;20018;-84
2023/11/14 00:19:00;;;;;;;1.75;1.00;;;13.40;99.90;;;;;;5016730;28;20139;-83
2023/11/14 00:21:26;;;;;;;4.82;1.10;;;13.30;99.90;;;;;;5021066;28;20127;-83
2023/11/14 00:23:51;;;;;;;3.97;1.02;;;13.20;99.90;;;;;;5017558;28;20033;-83
2023/11/14 00:26:18;;;;;;;1.77;0.90;;;13.20;99.90;;;;;;5018553;28;20045;-84
2023/11/14 00:28:44;;;;;;;4.15;1.20;;;13.20;99.90;;;;;;5018724;28;20053;-83
2023/11/14 00:31:10;;;;;;;3.42;0.95;;;13.10;99.90;;;;;;5017379;28;20393;-83
2023/11/14 00:33:35;;;;;;;4.47;1.65;;;13.10;99.90;;;;;;5016891;28;20021;-84
2023/11/14 00:36:01;;;;;;;5.93;1.20;;;13.00;99.90;;;;;;5017935;28;20025;-84
2023/11/14 00:38:27;;;;;;;4.90;1.10;;;12.90;99.90;;;;;;5020842;28;21038;-84
2023/11/14 00:40:52;;;;;;;4.47;1.23;;;12.90;99.90;;;;;;5015036;28;20421;-84
2023/11/14 00:43:18;;;;;;;3.42;1.20;;;12.90;99.90;;;;;;5015535;28;20041;-84
2023/11/14 00:45:44;;;;;;;1.30;0.93;;;12.80;99.90;;;;;;5014929;28;20025;-84
2023/11/14 00:48:10;;;;;;;1.13;0.80;;;12.80;99.90;;;;;;5018491;28;20079;-84
2023/11/14 00:50:35;;;;;;;1.48;0.90;;;12.70;99.90;;;;;;5019635;28;20042;-84
2023/11/14 00:53:01;;;;;;;1.42;1.00;;;12.70;99.90;;;;;;5015139;28;20100;-84
2023/11/14 00:55:26;;;;;;;1.33;0.73;;;12.70;99.90;;;;;;5017302;28;20388;-85
2023/11/14 00:57:52;;;;;;;0.93;0.63;;;12.70;99.90;;;;;;5015075;28;20784;-85
2023/11/14 01:00:18;;;;;;;1.80;0.88;;;12.70;99.90;;;;;;5015965;28;20453;-84
2023/11/14 01:02:45;;;;;;;2.35;0.73;;;12.70;99.90;;;;;;5014849;28;20026;-85
2023/11/14 01:05:11;;;;;;;0.75;0.68;;;12.70;99.90;;;;;;5014103;28;21426;-84
2023/11/14 01:07:36;;;;;;;2.92;1.00;;;12.80;99.90;;;;;;5019545;28;20030;-84
2023/11/14 01:10:03;;;;;;;3.03;0.80;;;12.80;99.90;;;;;;5019119;28;20064;-84
2023/11/14 01:12:29;;;;;;;2.15;0.77;;;12.80;99.90;;;;;;5017813;28;20697;-84
2023/11/14 01:14:54;;;;;;;1.08;0.70;;;12.80;99.90;;;;;;5017550;28;20023;-84
2023/11/14 01:17:20;;;;;;;1.50;0.70;;;12.80;99.90;;;;;;5020507;28;20053;-84
2023/11/14 01:19:45;;;;;;;0.85;0.70;;;12.70;99.90;;;;;;5017583;28;20029;-83
2023/11/14 01:22:11;;;;;;;2.60;0.70;;;12.70;99.90;;;;;;5019748;28;20152;-84
2023/11/14 01:24:37;;;;;;;1.67;1.00;;;12.60;99.90;;;;;;5023905;28;20025;-84
2023/11/14 01:27:03;;;;;;;0.95;0.68;;;12.60;99.90;;;;;;5017508;28;20034;-83
2023/11/14 01:29:28;;;;;;;1.70;0.82;;;12.60;99.90;;;;;;5018323;28;20108;-84
2023/11/14 01:31:54;;;;;;;1.27;0.60;;;12.40;99.90;;;;;;5021440;28;20037;-84
2023/11/14 01:34:20;;;;;;;2.55;0.77;;;12.30;99.90;;;;;;5018757;28;20025;-84
2023/11/14 01:36:45;;;;;;;2.55;0.60;;;12.10;99.90;;;;;;5016278;28;20071;-84
2023/11/14 01:39:11;;;;;;;2.65;0.90;;;12.00;99.90;;;;;;5018037;28;20442;-84
2023/11/14 01:41:36;;;;;;;1.58;0.70;;;11.90;99.90;;;;;;5019669;28;20021;-84
2023/11/14 01:44:02;;;;;;;2.58;0.80;;;11.70;99.90;;;;;;5017071;28;20068;-84
2023/11/14 01:46:29;;;;;;;7.38;1.20;;;11.60;99.90;;;;;;5016932;28;20764;-84
2023/11/14 01:48:55;;;;;;;4.70;1.38;;;11.50;99.90;;;;;;5020214;28;20018;-84
2023/11/14 01:51:23;;;;;;;4.13;1.33;;;11.40;99.90;;;;;;5018522;28;20092;-85
2023/11/14 01:53:50;;;;;;;7.18;1.50;;;11.30;99.90;;;;;;5022588;28;20036;-85
2023/11/14 01:56:17;;;;;;;7.35;1.40;;;11.20;99.90;;;;;;5024757;28;20025;-83
2023/11/14 01:58:43;;;;;;;6.93;1.60;;;11.10;99.90;;;;;;5021202;28;20693;-84
2023/11/14 02:01:11;;;;;;;6.93;1.70;;;11.00;99.90;;;;;;5018551;28;20067;-84
2023/11/14 02:03:37;;;;;;;10.93;1.38;;;10.90;99.90;;;;;;5018452;28;20108;-83
2023/11/14 02:06:03;;;;;;;7.97;1.67;;;10.80;99.90;;;;;;5013891;28;20116;-83
2023/11/14 02:08:31;;;;;;;7.30;2.03;;;10.70;99.90;;;;;;5040039;28;20014;-84
2023/11/14 02:10:58;;;;;;;8.47;1.60;;;10.60;99.90;;;;;;5044039;28;20025;-84
2023/11/14 02:13:24;;;;;;;5.13;1.30;;;10.50;99.90;;;;;;5040925;28;20030;-84
2023/11/14 02:15:49;;;;;;;9.57;1.57;;;10.50;99.90;;;;;;5035193;28;20025;-84
2023/11/14 02:18:19;;;;;;;7.63;1.50;;;10.40;99.90;;;;;;5018844;28;20044;-84
2023/11/14 02:20:45;;;;;;;6.07;1.58;;;10.40;99.90;;;;;;5015716;28;20115;-83
2023/11/14 02:23:15;;;;;;;7.53;1.60;;;10.40;99.90;;;;;;5019672;28;20077;-84
2023/11/14 02:25:41;;;;;;;6.33;1.73;;;10.30;99.90;;;;;;5020845;28;20034;-84
2023/11/14 02:28:07;;;;;;;4.43;1.50;;;10.30;99.90;;;;;;5019633;28;20026;-83
2023/11/14 02:30:33;;;;;;;9.70;1.83;;;10.30;99.90;;;;;;5022227;28;20033;-83
2023/11/14 02:32:58;;;;;;;9.70;2.00;;;10.20;99.90;;;;;;5019742;28;20029;-84
2023/11/14 02:35:24;;;;;;;6.68;1.63;;;10.20;99.90;;;;;;5019402;28;21302;-84
2023/11/14 02:37:49;;;;;;;4.97;1.80;;;10.20;99.90;;;;;;5018899;28;20033;-84
2023/11/14 02:40:16;;;;;;;11.57;2.27;;;10.20;99.90;;;;;;5020105;28;20053;-84
2023/11/14 02:42:42;;;;;;;8.43;2.03;;;10.20;99.90;;;;;;5020921;28;20034;-84
2023/11/14 02:45:08;;;;;;;10.10;1.50;;;10.20;99.90;;;;;;5020449;28;20032;-84
2023/11/14 02:47:35;;;;;;;8.33;1.70;;;10.20;99.90;;;;;;5017801;28;20029;-84
2023/11/14 02:50:29;;;;;;;6.23;1.83;;;10.10;99.90;;;;;;5021918;28;20048;-84
2023/11/14 02:52:55;;;;;;;9.00;1.70;;;10.10;99.90;;;;;;5021786;28;20025;-84
2023/11/14 02:55:21;;;;;;;9.97;1.93;;;10.10;99.90;;;;;;5020911;28;20026;-84
2023/11/14 02:57:46;;;;;;;6.60;1.63;;;10.00;99.90;;;;;;5020512;28;20084;-84
2023/11/14 03:00:16;;;;;;;6.53;1.60;;;10.00;99.90;;;;;;5019850;28;20116;-84
2023/11/14 03:02:45;;;;;;;13.83;2.37;;;10.00;99.90;;;;;;5022932;28;20026;-84
2023/11/14 03:05:12;;;;;;;16.53;2.30;;;10.00;99.90;;;;;;5021469;28;20032;-84
2023/11/14 03:07:37;;;;;;;9.13;2.57;;;10.00;99.90;;;;;;5021918;28;20049;-84
2023/11/14 03:10:03;;;;;;;10.17;2.20;;;10.00;99.90;;;;;;5020653;28;20072;-84
2023/11/14 03:12:32;;;;;;;11.87;2.20;;;10.00;99.90;;;;;;5023045;28;20033;-84
2023/11/14 03:14:58;;;;;;;11.77;2.37;;;10.00;99.90;;;;;;5019330;28;20021;-84
2023/11/14 03:17:24;;;;;;;9.10;2.10;;;10.00;99.90;;;;;;5019595;28;20037;-84
2023/11/14 03:19:50;;;;;;;10.10;1.93;;;9.90;99.90;;;;;;5020424;28;20423;-84
2023/11/14 03:22:15;;;;;;;9.33;2.00;;;9.90;99.90;;;;;;5023348;28;20029;-84
2023/11/14 03:24:41;;;;;;;8.60;2.30;;;9.90;99.90;;;;;;5022319;28;20496;-84
2023/11/14 03:27:10;;;;;;;11.60;2.20;;;9.90;99.90;;;;;;5025962;28;20125;-84
2023/11/14 03:29:35;;;;;;;12.10;2.08;;;9.90;99.90;;;;;;5026697;28;21410;-83
2023/11/14 03:32:02;;;;;;;12.47;1.90;;;9.90;99.90;;;;;;5023763;28;20030;-83
2023/11/14 03:34:27;;;;;;;11.30;2.00;;;9.90;99.90;;;;;;5020266;28;21447;-84
2023/11/14 03:36:53;;;;;;;11.33;2.53;;;9.90;99.90;;;;;;5018241;28;20037;-84
2023/11/14 03:39:20;;;;;;;12.50;2.23;;;9.90;99.90;;;;;;5022166;28;20073;-85
2023/11/14 03:41:46;;;;;;;7.57;2.57;;;9.90;99.90;;;;;;5017518;28;20029;-84
2023/11/14 03:44:12;;;;;;;11.10;2.03;;;9.80;99.90;;;;;;5017727;28;20033;-84
2023/11/14 03:46:38;;;;;;;11.80;2.27;;;9.80;99.90;;;;;;5017864;28;20025;-84
2023/11/14 03:49:04;;;;;;;15.60;3.27;;;9.80;99.90;;;;;;5018582;28;20112;-84
2023/11/14 03:51:30;;;;;;;11.00;2.23;;;9.80;99.90;;;;;;5018727;28;20026;-83
2023/11/14 03:53:55;;;;;;;12.70;2.57;;;9.80;99.90;;;;;;5023493;28;20053;-84
2023/11/14 03:56:21;;;;;;;12.87;2.13;;;9.80;99.90;;;;;;5019665;28;20034;-83
2023/11/14 03:58:49;;;;;;;8.40;2.30;;;9.90;99.90;;;;;;5019425;28;20036;-83
2023/11/14 04:01:15;;;;;;;11.23;2.20;;;9.90;99.90;;;;;;5017971;28;20025;-84
2023/11/14 04:03:40;;;;;;;9.37;2.30;;;9.80;99.90;;;;;;5017594;28;20033;-84
2023/11/14 04:06:10;;;;;;;12.60;3.17;;;9.80;99.90;;;;;;5022368;28;20026;-84
2023/11/14 04:08:36;;;;;;;9.00;2.23;;;9.80;99.90;;;;;;5022492;28;20143;-84
2023/11/14 04:11:01;;;;;;;11.07;2.00;;;9.70;99.90;;;;;;5023298;28;20068;-84
2023/11/14 04:13:27;;;;;;;9.60;2.03;;;9.70;99.90;;;;;;5022465;28;20116;-83
2023/11/14 04:15:53;;;;;;;9.57;2.50;;;9.70;99.90;;;;;;5020924;28;20037;-84
2023/11/14 04:18:18;;;;;;;12.20;2.07;;;9.70;99.90;;;;;;5019504;28;20396;-84
2023/11/14 04:20:45;;;;;;;5.30;1.77;;;9.70;99.90;;;;;;5019603;28;20026;-84
2023/11/14 04:23:11;;;;;;;6.10;1.83;;;9.70;99.90;;;;;;5019394;28;20013;-84
2023/11/14 04:25:37;;;;;;;5.73;1.90;;;9.70;99.90;;;;;;5020298;28;20582;-84
2023/11/14 04:28:03;;;;;;;7.87;1.83;;;9.70;99.90;;;;;;5019910;28;20025;-84
2023/11/14 04:30:28;;;;;;;10.97;1.90;;;9.70;99.90;;;;;;5020106;28;21066;-84
2023/11/14 04:32:54;;;;;;;8.90;2.20;;;9.70;99.90;;;;;;5019910;28;20041;-84
2023/11/14 04:35:19;;;;;;;8.83;2.07;;;9.70;99.90;;;;;;5020633;28;20084;-84
2023/11/14 04:37:48;;;;;;;13.00;2.50;;;9.70;99.90;;;;;;5018313;28;20111;-84
2023/11/14 04:40:13;;;;;;;7.40;1.90;;;9.70;99.90;;;;;;5019045;28;20997;-84
2023/11/14 04:42:39;;;;;;;9.63;2.27;;;9.70;99.90;;;;;;5021481;28;20039;-84
2023/11/14 04:45:05;;;;;;;8.97;2.33;;;9.70;99.90;;;;;;5019570;28;20040;-83
2023/11/14 04:47:31;;;;;;;9.23;2.33;;;9.70;99.90;;;;;;5021013;28;20124;-84
2023/11/14 04:49:57;;;;;;;6.23;1.80;;;9.70;99.90;;;;;;5017608;28;20168;-84
2023/11/14 04:52:22;;;;;;;8.50;2.00;;;9.70;99.90;;;;;;5018745;28;20036;-84
2023/11/14 04:54:49;;;;;;;9.73;2.10;;;9.70;99.90;;;;;;5021776;28;20422;-84
2023/11/14 04:57:14;;;;;;;5.37;1.80;;;9.70;99.90;;;;;;5018289;28;20032;-83
2023/11/14 04:59:40;;;;;;;7.03;2.10;;;9.70;99.90;;;;;;5018827;28;20105;-83
2023/11/14 05:02:05;;;;;;;8.83;2.27;;;9.70;99.90;;;;;;5021150;28;20026;-83
2023/11/14 05:04:31;;;;;;;7.17;1.97;;;9.70;99.90;;;;;;5043942;28;20037;-84
2023/11/14 05:06:56;;;;;;;7.90;2.40;;;9.70;99.90;;;;;;5050143;28;20024;-83
2023/11/14 05:09:23;;;;;;;6.03;1.50;;;9.70;99.90;;;;;;5031778;28;20579;-83
2023/11/14 05:11:49;;;;;;;6.07;2.00;;;9.80;99.90;;;;;;5021204;28;20052;-83
2023/11/14 05:14:14;;;;;;;6.10;1.70;;;9.70;99.90;;;;;;5024305;28;20029;-83
2023/11/14 05:16:40;;;;;;;7.00;2.23;;;9.70;99.90;;;;;;5025639;28;21312;-83
2023/11/14 05:19:07;;;;;;;8.53;1.93;;;9.70;99.90;;;;;;5019631;28;20042;-83
2023/11/14 05:21:33;;;;;;;5.83;2.17;;;9.70;99.90;;;;;;5021434;28;20128;-84
2023/11/14 05:23:59;;;;;;;7.93;2.73;;;9.70;99.90;;;;;;5019302;28;20041;-83
2023/11/14 05:26:24;;;;;;;7.20;2.27;;;9.70;99.90;;;;;;5018420;28;20029;-83
2023/11/14 05:28:50;;;;;;;6.70;1.97;;;9.70;99.90;;;;;;5018397;28;20164;-84
2023/11/14 05:31:15;;;;;;;7.77;1.80;;;9.70;99.90;;;;;;5019183;28;20083;-83
2023/11/14 05:33:41;;;;;;;5.50;1.73;;;9.70;99.90;;;;;;5019166;28;20026;-82
2023/11/14 05:36:07;;;;;;;7.27;1.97;;;9.70;99.90;;;;;;5018309;28;20022;-84
2023/11/14 05:38:32;;;;;;;8.87;2.30;;;9.80;99.90;;;;;;5017103;28;20040;-84
2023/11/14 05:40:58;;;;;;;10.77;2.33;;;9.70;99.90;;;;;;5019254;28;20022;-83
2023/11/14 05:43:24;;;;;;;9.03;2.03;;;9.70;99.90;;;;;;5017265;28;20045;-84
2023/11/14 05:45:50;;;;;;;8.20;1.97;;;9.70;99.90;;;;;;5015379;28;20034;-84
2023/11/14 05:48:19;;;;;;;6.80;1.90;;;9.70;99.90;;;;;;5015603;28;20030;-85
2023/11/14 05:50:46;;;;;;;7.77;2.03;;;9.70;99.90;;;;;;5015360;28;20041;-86
2023/11/14 05:53:12;;;;;;;7.97;2.10;;;9.70;99.90;;;;;;5015306;28;20025;-86
2023/11/14 05:55:37;;;;;;;7.20;1.93;;;9.70;99.90;;;;;;5012510;28;20030;-86
2023/11/14 05:58:03;;;;;;;7.30;2.17;;;9.70;99.90;;;;;;5015145;28;20078;-87
2023/11/14 06:00:28;;;;;;;3.33;1.60;;;9.70;99.90;;;;;;5014876;28;20029;-86
2023/11/14 06:02:54;;;;;;;6.20;2.10;;;9.70;99.90;;;;;;5014641;28;20108;-86
2023/11/14 06:05:20;;;;;;;5.10;2.10;;;9.70;99.90;;;;;;5014398;28;20049;-86
2023/11/14 06:07:45;;;;;;;5.63;2.13;;;9.70;99.90;;;;;;5014272;28;20069;-86
2023/11/14 06:10:11;;;;;;;5.93;2.20;;;9.70;99.90;;;;;;5014592;28;20117;-86
2023/11/14 06:12:39;;;;;;;5.90;1.50;;;9.70;99.90;;;;;;5012880;28;20030;-86
2023/11/14 06:15:07;;;;;;;6.07;2.07;;;9.70;99.90;;;;;;5014785;28;20017;-85
2023/11/14 06:17:33;;;;;;;6.73;1.60;;;9.70;99.90;;;;;;5014559;28;20037;-86
2023/11/14 06:19:58;;;;;;;2.97;1.50;;;9.70;99.90;;;;;;5012350;28;20103;-87
2023/11/14 06:22:24;;;;;;;4.40;1.70;;;9.70;99.90;;;;;;5018482;28;20062;-86
2023/11/14 06:24:50;;;;;;;2.77;1.27;;;9.60;99.90;;;;;;5020419;28;20034;-86
2023/11/14 06:27:15;;;;;;;4.00;1.50;;;9.60;99.90;;;;;;5018863;28;20120;-87
2023/11/14 06:29:42;;;;;;;5.77;1.40;;;9.60;99.90;;;;;;5016522;28;20108;-86
2023/11/14 06:32:07;;;;;;;2.13;1.10;;;9.60;99.90;;;;;;5016782;28;20103;-86
2023/11/14 06:34:33;;;;;;;4.00;1.10;;;9.60;99.90;;;;;;5016781;28;20443;-88
2023/11/14 06:36:58;;;;;;;4.57;1.30;;;9.60;99.90;;;;;;5015863;28;20496;-87
2023/11/14 06:39:26;;;;;;;4.97;1.20;;;9.60;99.90;;;;;;5015001;28;20056;-87
2023/11/14 06:41:52;;;;;;;2.40;1.00;;;9.50;99.90;;;;;;5013433;28;20121;-86
2023/11/14 06:44:18;;;;;;;6.00;1.40;;;9.50;99.90;;;;;;5016265;28;20033;-86
2023/11/14 06:46:46;;;;;;;2.93;1.20;;;9.50;99.90;;;;;;5017624;28;20030;-86
2023/11/14 06:49:11;;;;;;;5.17;1.20;;;9.50;99.90;;;;;;5013923;28;20026;-84
2023/11/14 06:51:37;;;;;;;3.40;1.43;;;9.50;99.90;;;;;;5016694;28;20029;-84
2023/11/14 06:54:02;;;;;;;4.80;1.40;;;9.50;99.90;;;;;;5013598;28;20639;-84
2023/11/14 06:56:28;;;;;;;2.83;1.00;;;9.50;99.90;;;;;;5012797;28;21014;-83
2023/11/14 06:58:53;;;;;;;2.27;1.20;;;9.40;99.90;;;;;;5011901;28;20510;-83
2023/11/14 07:01:19;;;;;;;2.67;1.27;;;9.40;99.90;;;;;;5012970;28;20033;-83
2023/11/14 07:03:44;;;;;;;5.83;1.50;;;9.40;99.90;;;;;;5013129;28;20677;-83
2023/11/14 07:06:11;;;;;;;3.97;1.30;;;9.40;99.90;;;;;;5014496;28;20029;-83
2023/11/14 07:08:36;;;;;;;2.63;1.30;;;9.40;99.90;;;;;;5011666;28;20070;-83
2023/11/14 07:11:02;;;;;;;4.60;1.30;;;9.40;99.90;;;;;;5007640;28;20095;-84
2023/11/14 07:13:27;;;;;;;3.77;1.40;;;9.40;99.90;;;;;;5006767;28;20271;-84
2023/11/14 07:15:53;;;;;;;6.63;1.67;;;9.40;99.90;;;;;;5007227;28;20694;-84
2023/11/14 07:18:19;;;;;;;5.57;1.43;;;9.40;99.90;;;;;;5009285;28;20037;-84
2023/11/14 07:20:47;;;;;;;5.07;1.50;;;9.40;99.90;;;;;;5007949;28;20030;-84
2023/11/14 07:23:12;;;;;;;3.80;1.20;;;9.40;99.90;;;;;;5008904;28;20018;-84
2023/11/14 07:25:43;;;;;;;5.00;1.40;;;9.40;99.90;;;;;;5008523;28;20026;-84
2023/11/14 07:28:09;;;;;;;5.70;2.27;;;9.40;99.90;;;;;;5007385;28;20038;-84
2023/11/14 07:30:35;;;;;;;3.93;1.50;;;9.40;99.90;;;;;;5007672;28;20092;-84
2023/11/14 07:33:01;;;;;;;5.93;2.57;;;9.40;99.90;;;;;;5008207;28;20805;-84
2023/11/14 07:35:27;;;;;;;4.13;1.70;;;9.40;99.90;;;;;;5008580;28;20112;-84
2023/11/14 07:37:52;;;;;;;4.43;1.43;;;9.40;99.90;;;;;;5009571;28;21337;-84
2023/11/14 07:40:19;;;;;;;5.33;2.10;;;9.50;99.90;;;;;;5006471;28;20029;-84
2023/11/14 07:42:45;;;;;;;4.43;1.70;;;9.50;99.90;;;;;;5007137;28;20034;-84
2023/11/14 07:45:11;;;;;;;4.90;2.17;;;9.50;99.90;;;;;;5007838;28;20052;-83
2023/11/14 07:47:37;;;;;;;4.40;1.60;;;9.50;99.90;;;;;;5009375;28;20029;-85
2023/11/14 07:50:04;;;;;;;6.30;2.03;;;9.50;99.90;;;;;;5007762;28;20052;-85
2023/11/14 07:52:30;;;;;;;11.37;1.40;;;9.50;99.90;;;;;;5006875;28;20428;-85
2023/11/14 07:54:57;;;;;;;2.37;1.27;;;9.50;99.90;;;;;;5006199;28;20038;-85
2023/11/14 07:57:24;;;;;;;4.33;1.10;;;9.60;99.90;;;;;;5010061;28;20021;-85
2023/11/14 07:59:49;;;;;;;3.23;0.90;;;9.50;99.90;;;;;;5018099;28;20038;-86
2023/11/14 08:02:15;;;;;;;1.73;0.90;;;9.60;99.90;;;;;;5020575;28;20033;-84
2023/11/14 08:04:40;;;;;;;5.70;1.10;;;9.60;99.90;;;;;;5023624;28;20118;-85
2023/11/14 08:07:07;;;;;;;1.33;0.87;;;9.60;99.90;;;;;;5012339;28;20731;-85
2023/11/14 08:09:33;;;;;;;2.80;0.80;;;9.70;99.90;;;;;;5011850;28;20034;-86
2023/11/14 08:11:58;;;;;;;2.93;0.90;;;9.60;99.90;;;;;;5008596;28;20040;-86
2023/11/14 08:14:24;;;;;;;3.33;1.00;;;9.70;99.90;;;;;;5011359;28;20033;-86
2023/11/14 08:16:50;;;;;;;1.47;0.80;;;9.70;99.90;;;;;;5014070;28;20116;-85
2023/11/14 08:19:15;;;;;;;1.43;0.80;;;9.80;99.90;;;;;;5017194;28;20037;-75
2023/11/14 08:21:41;;;;;;;2.63;0.83;;;9.90;99.90;;;;;;5015468;28;20021;-83
2023/11/14 08:24:07;;;;;;;2.67;0.90;;;9.90;99.90;;;;;;5018757;28;20034;-83
2023/11/14 08:26:32;;;;;;;3.10;1.73;;;10.00;99.90;;;;;;5018367;28;20030;-83
2023/11/14 08:28:58;;;;;;;1.50;0.90;;;10.00;99.90;;;;;;5017588;28;20030;-83
2023/11/14 08:31:23;;;;;;;4.33;1.17;;;10.00;99.90;;;;;;5021344;28;20049;-83
2023/11/14 08:33:49;;;;;;;2.10;1.07;;;10.10;99.90;;;;;;5021595;28;20034;-84
2023/11/14 08:36:14;;;;;;;2.37;0.90;;;10.10;99.90;;;;;;5021999;28;20033;-83
2023/11/14 08:38:41;;;;;;;1.73;0.70;;;10.20;99.90;;;;;;5015097;28;20046;-83
2023/11/14 08:41:06;;;;;;;1.10;0.90;;;10.30;99.90;;;;;;5019558;28;20029;-83
2023/11/14 08:43:34;;;;;;;1.60;0.77;;;10.30;99.90;;;;;;5018039;28;20038;-84
2023/11/14 08:46:00;;;;;;;1.80;0.90;;;10.40;99.90;;;;;;5019591;28;20072;-83
2023/11/14 08:48:26;;;;;;;2.50;0.90;;;10.40;99.90;;;;;;5016298;28;20578;-84
2023/11/14 08:50:51;;;;;;;0.90;0.65;;;10.40;99.90;;;;;;5016708;28;20041;-83
2023/11/14 08:53:17;;;;;;;2.63;0.77;;;10.40;99.90;;;;;;5017643;28;20044;-83
2023/11/14 08:55:42;;;;;;;1.67;0.80;;;10.40;99.90;;;;;;5019739;28;20103;-83
2023/11/14 08:58:08;;;;;;;2.40;0.70;;;10.50;99.90;;;;;;5018260;28;20038;-84
2023/11/14 09:00:35;;;;;;;1.70;0.77;;;10.50;99.90;;;;;;5018270;28;20551;-83
2023/11/14 09:03:01;;;;;;;1.10;0.70;;;10.50;99.90;;;;;;5016125;28;20014;-85
2023/11/14 09:05:28;;;;;;;1.53;0.90;;;10.50;99.90;;;;;;5016996;28;20037;-84
2023/11/14 09:07:54;;;;;;;2.03;0.90;;;10.50;99.90;;;;;;5015032;28;20598;-84
2023/11/14 09:10:19;;;;;;;2.07;0.80;;;10.50;99.90;;;;;;5018154;28;20021;-84
2023/11/14 09:12:45;;;;;;;1.23;0.60;;;10.60;99.90;;;;;;5016729;28;20022;-85
2023/11/14 09:15:13;;;;;;;0.97;0.70;;;10.70;99.90;;;;;;5016811;28;20021;-84
2023/11/14 09:17:39;;;;;;;0.77;0.63;;;10.70;99.90;;;;;;5017468;28;20028;-84
2023/11/14 09:20:05;;;;;;;1.10;0.50;;;10.70;99.90;;;;;;5017461;28;20204;-84
2023/11/14 09:22:31;;;;;;;1.00;0.60;;;10.70;99.90;;;;;;5016565;28;20509;-84
2023/11/14 09:24:56;;;;;;;1.83;0.80;;;10.70;99.90;;;;;;5013940;28;20037;-84
2023/11/14 09:27:25;;;;;;;1.90;0.70;;;10.70;99.90;;;;;;5015191;28;20801;-84
2023/11/14 09:29:51;;;;;;;1.70;1.00;;;10.70;99.90;;;;;;5017243;28;20041;-84
2023/11/14 09:32:20;;;;;;;3.93;0.60;;;10.70;99.90;;;;;;5016877;28;20496;-84
2023/11/14 09:34:47;;;;;;;1.03;0.60;;;10.70;99.90;;;;;;5017908;28;20579;-84
2023/11/14 09:37:12;;;;;;;1.47;0.83;;;10.70;99.90;;;;;;5017350;28;20483;-84
2023/11/14 09:39:38;;;;;;;0.97;0.77;;;10.60;99.90;;;;;;5017806;28;20030;-84
2023/11/14 09:42:04;;;;;;;1.43;0.70;;;10.50;99.90;;;;;;5020997;28;20017;-84
2023/11/14 09:44:30;;;;;;;1.10;0.80;;;10.50;99.90;;;;;;5017863;28;20033;-84
2023/11/14 09:46:58;;;;;;;2.33;0.50;;;10.50;99.90;;;;;;5019013;28;20411;-84
2023/11/14 09:49:24;;;;;;;1.33;0.60;;;10.50;99.90;;;;;;5017553;28;20762;-84
2023/11/14 09:51:50;;;;;;;1.07;0.70;;;10.50;99.90;;;;;;5016842;28;20067;-84
2023/11/14 09:54:17;;;;;;;2.23;0.83;;;10.40;99.90;;;;;;5020441;28;20401;-84
2023/11/14 09:56:48;;;;;;;2.27;0.83;;;10.50;99.90;;;;;;5018094;28;20029;-84
2023/11/14 09:59:14;;;;;;;4.20;0.80;;;10.40;99.90;;;;;;5017541;28;20040;-84
2023/11/14 10:01:40;;;;;;;2.07;0.80;;;10.50;99.90;;;;;;5015194;28;20026;-84
2023/11/14 10:04:06;;;;;;;2.07;0.80;;;10.40;99.90;;;;;;5017030;28;20029;-84
2023/11/14 10:06:34;;;;;;;1.53;0.70;;;10.50;99.90;;;;;;5015252;28;20030;-85
2023/11/14 10:09:01;;;;;;;0.70;0.70;;;10.50;99.90;;;;;;5016406;28;20207;-84
2023/11/14 10:11:43;;;;;;;1.50;0.80;;;10.50;99.90;;;;;;5015215;28;20041;-83
2023/11/14 10:14:09;;;;;;;1.80;0.53;;;10.50;99.90;;;;;;5015861;28;20029;-85
2023/11/14 10:16:36;;;;;;;2.42;1.00;;;10.60;99.90;;;;;;5015242;28;20034;-84
2023/11/14 10:19:11;;;;;;;3.77;1.10;;;10.60;99.90;;;;;;5019313;28;20173;-84
2023/11/14 10:21:36;;;;;;;3.50;0.90;;;10.70;99.90;;;;;;5022620;28;20033;-84
2023/11/14 10:24:14;;;;;;;2.40;0.87;;;10.70;99.90;;;;;;5021019;28;20097;-84
2023/11/14 10:26:53;;;;;;;1.73;0.80;;;10.70;99.90;;;;;;5019153;28;20479;-84
2023/11/14 10:29:21;;;;;;;1.70;0.90;;;10.70;99.90;;;;;;5017444;28;20033;-84
2023/11/14 10:31:47;;;;;;;1.40;0.63;;;10.70;99.90;;;;;;5016879;28;20030;-84
2023/11/14 10:34:30;;;;;;;0.47;0.47;;;10.70;99.90;;;;;;5017879;28;20025;-84
2023/11/14 10:36:57;;;;;;;1.90;0.80;;;10.80;99.90;;;;;;5021404;28;20030;-83
2023/11/14 10:39:24;;;;;;;1.23;0.63;;;10.80;99.90;;;;;;5017356;28;20480;-84
2023/11/14 10:41:52;;;;;;;1.38;0.70;;;10.90;99.90;;;;;;5017412;28;20707;-84
2023/11/14 10:44:18;;;;;;;1.30;0.65;;;10.90;99.90;;;;;;5015413;28;20732;-84
2023/11/14 10:46:48;;;;;;;1.58;0.57;;;10.90;99.90;;;;;;5012922;28;20064;-87
2023/11/14 10:49:14;;;;;;;2.70;0.68;;;10.80;99.90;;;;;;5021545;28;20029;-83
2023/11/14 10:51:41;;;;;;;1.90;0.77;;;10.80;99.90;;;;;;5016880;28;20095;-83
2023/11/14 10:54:07;;;;;;;1.90;0.60;;;10.90;99.90;;;;;;5017494;28;20022;-83
2023/11/14 10:56:37;;;;;;;2.10;0.70;;;10.90;99.90;;;;;;5025347;28;20081;-83
2023/11/14 10:59:10;;;;;;;4.72;0.90;;;10.90;99.90;;;;;;5025011;28;20060;-83
2023/11/14 11:01:36;;;;;;;1.52;0.80;;;10.90;99.90;;;;;;5024459;28;20029;-83
2023/11/14 11:04:06;;;;;;;1.80;0.80;;;10.90;99.90;;;;;;5016372;28;20029;-83
2023/11/14 11:06:32;;;;;;;0.73;0.60;;;10.90;99.90;;;;;;5017339;28;20030;-84
2023/11/14 11:08:58;;;;;;;1.90;0.70;;;10.80;99.90;;;;;;5017635;28;20025;-83
2023/11/14 11:11:29;;;;;;;1.58;0.70;;;10.80;99.90;;;;;;5022799;28;20044;-84
2023/11/14 11:13:57;;;;;;;8.70;1.40;;;10.80;99.90;;;;;;5019987;28;20025;-84
2023/11/14 11:16:43;;;;;;;2.72;0.75;;;10.80;99.90;;;;;;5022226;28;20053;-84
2023/11/14 11:19:10;;;;;;;1.60;0.90;;;10.80;99.90;;;;;;5020965;28;20040;-83
2023/11/14 11:21:35;;;;;;;1.87;0.90;;;10.80;99.90;;;;;;5021200;28;20120;-84
2023/11/14 11:24:05;;;;;;;1.63;0.93;;;10.70;99.90;;;;;;5022616;28;20054;-83
2023/11/14 11:26:31;;;;;;;2.35;0.93;;;10.70;99.90;;;;;;5021513;28;20037;-84
2023/11/14 11:28:59;;;;;;;2.13;0.70;;;10.80;99.90;;;;;;5022571;28;20030;-83
2023/11/14 11:31:25;;;;;;;0.97;0.57;;;10.80;99.90;;;;;;5020592;28;20029;-84
2023/11/14 11:33:50;;;;;;;1.13;0.70;;;10.80;99.90;;;;;;5018416;28;20026;-86
2023/11/14 11:36:25;;;;;;;0.73;0.50;;;10.90;99.90;;;;;;5017074;28;20476;-86
2023/11/14 11:39:04;;;;;;;1.65;0.73;;;10.90;99.90;;;;;;5016539;28;20026;-86
2023/11/14 11:41:34;;;;;;;2.25;0.60;;;10.90;99.90;;;;;;4999420;28;20508;-87
2023/11/14 11:44:11;;;;;;;2.67;0.75;;;10.90;99.90;;;;;;5015559;28;20124;-86
2023/11/14 11:46:39;;;;;;;1.63;0.80;;;10.90;99.90;;;;;;5016463;28;20025;-86
2023/11/14 11:49:10;;;;;;;1.30;0.70;;;10.90;99.90;;;;;;5015853;28;20041;-86
2023/11/14 11:51:49;;;;;;;1.30;0.75;;;10.90;99.90;;;;;;5022114;28;20075;-86
2023/11/14 11:54:27;;;;;;;1.85;0.70;;;10.90;99.90;;;;;;5030094;28;20093;-86
2023/11/14 11:57:10;;;;;;;1.63;0.63;;;11.00;99.90;;;;;;5020073;28;20013;-84
2023/11/14 11:59:39;;;;;;;1.65;0.57;;;11.00;99.90;;;;;;5024139;28;20040;-84
2023/11/14 12:02:13;;;;;;;2.25;0.80;;;11.10;99.90;;;;;;5026003;28;20033;-84
2023/11/14 12:04:39;;;;;;;2.13;0.70;;;11.10;99.90;;;;;;5024907;28;20099;-83
2023/11/14 12:07:06;;;;;;;3.28;0.70;;;11.20;99.90;;;;;;5025899;28;21475;-84
2023/11/14 12:09:32;;;;;;;1.55;0.60;;;11.30;99.90;;;;;;5025415;28;20120;-84
2023/11/14 12:11:58;;;;;;;3.25;0.80;;;11.30;99.90;;;;;;5024607;28;20723;-84
2023/11/14 12:14:23;;;;;;;2.67;0.70;;;11.30;99.90;;;;;;5022768;28;20017;-84
2023/11/14 12:16:49;;;;;;;2.57;0.93;;;11.30;99.90;;;;;;5024930;28;21491;-83
2023/11/14 12:19:16;;;;;;;0.95;0.57;;;11.30;99.90;;;;;;5024631;28;20037;-84
2023/11/14 12:21:45;;;;;;;1.55;0.80;;;11.30;99.90;;;;;;5023707;28;20021;-84
2023/11/14 12:24:12;;;;;;;1.25;0.70;;;11.30;99.90;;;;;;5014354;28;20730;-84
2023/11/14 12:26:38;;;;;;;0.70;0.60;;;11.30;99.90;;;;;;5012734;28;20076;-82
2023/11/14 12:29:07;;;;;;;0.47;0.40;;;11.30;99.90;;;;;;5016739;28;20029;-82
2023/11/14 12:31:33;;;;;;;1.23;0.60;;;11.30;99.90;;;;;;5014715;28;20124;-82
2023/11/14 12:34:00;;;;;;;3.40;0.90;;;11.30;99.90;;;;;;5015421;28;20071;-82
2023/11/14 12:36:29;;;;;;;1.85;0.80;;;11.30;99.90;;;;;;5014586;28;20037;-83
2023/11/14 12:38:56;;;;;;;0.77;0.70;;;11.30;99.90;;;;;;5015580;28;20042;-83
2023/11/14 12:41:28;;;;;;;1.75;0.80;;;11.20;99.90;;;;;;5012874;28;20025;-82
2023/11/14 12:43:57;;;;;;;1.17;0.63;;;11.20;99.90;;;;;;5017817;28;20032;-82
2023/11/14 12:46:27;;;;;;;1.00;0.52;;;11.20;99.90;;;;;;5015836;28;20439;-84
2023/11/14 12:49:14;;;;;;;2.35;0.95;;;11.20;99.90;;;;;;5017465;28;20079;-84